sensor_id;sensor_type;location;lat;lon;timestamp;temperature;humidity
7216;DHT22;3649;48.798;9.798;2023-04-27T00:01:36;12.60;99.90
7216;DHT22;3649;48.798;9.798;2023-04-27T00:04:04;12.60;99.90
7216;DHT22;3649;48.798;9.798;2023-04-27T00:06:32;12.60;99.90
7216;DHT22;3649;48.798;9.798;2023-04-27T00:09:00;12.60;99.90
7216;DHT22;3649;48.798;9.798;2023-04-27T00:11:27;12.60;99.90
7216;DHT22;3649;48.798;9.798;2023-04-27T00:13:53;12.60;99.90
7216;DHT22;3649;48.798;9.798;2023-04-27T00:16:21;12.70;99.90
7216;DHT22;3649;48.798;9.798;2023-04-27T00:18:48;12.60;99.90
7216;DHT22;3649;48.798;9.798;2023-04-27T00:21:15;12.60;99.90
7216;DHT22;3649;48.798;9.798;2023-04-27T00:23:42;12.50;99.90
7216;DHT22;3649;48.798;9.798;2023-04-27T00:26:09;12.40;99.90
7216;DHT22;3649;48.798;9.798;2023-04-27T00:28:36;12.40;99.90
7216;DHT22;3649;48.798;9.798;2023-04-27T00:31:02;12.40;99.90
7216;DHT22;3649;48.798;9.798;2023-04-27T00:33:30;12.40;99.90
7216;DHT22;3649;48.798;9.798;2023-04-27T00:36:00;12.40;99.90
7216;DHT22;3649;48.798;9.798;2023-04-27T00:38:28;12.40;99.90
7216;DHT22;3649;48.798;9.798;2023-04-27T00:41:05;12.30;99.90
7216;DHT22;3649;48.798;9.798;2023-04-27T00:43:40;12.30;99.90
7216;DHT22;3649;48.798;9.798;2023-04-27T00:46:07;12.30;99.90
7216;DHT22;3649;48.798;9.798;2023-04-27T00:48:34;12.20;99.90
7216;DHT22;3649;48.798;9.798;2023-04-27T00:51:01;12.20;99.90
7216;DHT22;3649;48.798;9.798;2023-04-27T00:53:28;12.20;99.90
7216;DHT22;3649;48.798;9.798;2023-04-27T00:55:55;12.10;99.90
7216;DHT22;3649;48.798;9.798;2023-04-27T00:58:24;12.10;99.90
7216;DHT22;3649;48.798;9.798;2023-04-27T01:00:51;12.10;99.90
7216;DHT22;3649;48.798;9.798;2023-04-27T01:03:18;12.20;99.90
7216;DHT22;3649;48.798;9.798;2023-04-27T01:05:45;12.20;99.90
7216;DHT22;3649;48.798;9.798;2023-04-27T01:08:12;12.20;99.90
7216;DHT22;3649;48.798;9.798;2023-04-27T01:10:40;12.10;99.90
7216;DHT22;3649;48.798;9.798;2023-04-27T01:13:06;12.10;99.90
7216;DHT22;3649;48.798;9.798;2023-04-27T01:15:33;12.10;99.90
7216;DHT22;3649;48.798;9.798;2023-04-27T01:18:01;12.00;99.90
7216;DHT22;3649;48.798;9.798;2023-04-27T01:20:28;12.10;99.90
7216;DHT22;3649;48.798;9.798;2023-04-27T01:22:56;12.00;99.90
7216;DHT22;3649;48.798;9.798;2023-04-27T01:25:24;11.90;99.90
7216;DHT22;3649;48.798;9.798;2023-04-27T01:27:51;11.90;99.90
7216;DHT22;3649;48.798;9.798;2023-04-27T01:30:19;12.00;99.90
7216;DHT22;3649;48.798;9.798;2023-04-27T01:32:48;12.00;99.90
7216;DHT22;3649;48.798;9.798;2023-04-27T01:35:15;12.00;99.90
7216;DHT22;3649;48.798;9.798;2023-04-27T01:37:42;12.00;99.90
7216;DHT22;3649;48.798;9.798;2023-04-27T01:40:09;11.90;99.90
7216;DHT22;3649;48.798;9.798;2023-04-27T01:42:37;11.90;99.90
7216;DHT22;3649;48.798;9.798;2023-04-27T01:45:04;11.90;99.90
7216;DHT22;3649;48.798;9.798;2023-04-27T01:47:31;11.80;99.90
7216;DHT22;3649;48.798;9.798;2023-04-27T01:49:58;10.80;99.90
7216;DHT22;3649;48.798;9.798;2023-04-27T01:52:25;12.00;99.90
7216;DHT22;3649;48.798;9.798;2023-04-27T01:54:52;12.00;99.90
7216;DHT22;3649;48.798;9.798;2023-04-27T01:57:19;11.80;99.90
7216;DHT22;3649;48.798;9.798;2023-04-27T01:59:46;11.80;99.90
7216;DHT22;3649;48.798;9.798;2023-04-27T02:02:13;11.80;99.90
7216;DHT22;3649;48.798;9.798;2023-04-27T02:04:40;11.80;99.90
7216;DHT22;3649;48.798;9.798;2023-04-27T02:07:09;11.80;99.90
7216;DHT22;3649;48.798;9.798;2023-04-27T02:09:36;11.80;99.90
7216;DHT22;3649;48.798;9.798;2023-04-27T02:12:04;12.00;99.90
7216;DHT22;3649;48.798;9.798;2023-04-27T02:14:31;11.70;99.90
7216;DHT22;3649;48.798;9.798;2023-04-27T02:16:57;11.70;99.90
7216;DHT22;3649;48.798;9.798;2023-04-27T02:19:24;11.70;99.90
7216;DHT22;3649;48.798;9.798;2023-04-27T02:21:51;11.90;99.90
7216;DHT22;3649;48.798;9.798;2023-04-27T02:24:18;11.70;99.90
7216;DHT22;3649;48.798;9.798;2023-04-27T02:26:45;11.70;99.90
7216;DHT22;3649;48.798;9.798;2023-04-27T02:29:12;11.70;99.90
7216;DHT22;3649;48.798;9.798;2023-04-27T02:31:39;11.70;99.90
7216;DHT22;3649;48.798;9.798;2023-04-27T02:34:06;11.70;99.90
7216;DHT22;3649;48.798;9.798;2023-04-27T02:36:33;11.70;99.90
7216;DHT22;3649;48.798;9.798;2023-04-27T02:39:00;11.70;99.90
7216;DHT22;3649;48.798;9.798;2023-04-27T02:41:30;11.70;99.90
7216;DHT22;3649;48.798;9.798;2023-04-27T02:43:57;11.70;99.90
7216;DHT22;3649;48.798;9.798;2023-04-27T02:46:24;11.80;99.90
7216;DHT22;3649;48.798;9.798;2023-04-27T02:48:53;11.60;99.90
7216;DHT22;3649;48.798;9.798;2023-04-27T02:51:20;11.70;99.90
7216;DHT22;3649;48.798;9.798;2023-04-27T02:53:47;11.70;99.90
7216;DHT22;3649;48.798;9.798;2023-04-27T02:56:14;11.70;99.90
7216;DHT22;3649;48.798;9.798;2023-04-27T02:58:41;11.70;99.90
7216;DHT22;3649;48.798;9.798;2023-04-27T03:01:08;11.70;99.90
7216;DHT22;3649;48.798;9.798;2023-04-27T03:03:35;11.70;99.90
7216;DHT22;3649;48.798;9.798;2023-04-27T03:06:02;11.70;99.90
7216;DHT22;3649;48.798;9.798;2023-04-27T03:08:29;11.80;99.90
7216;DHT22;3649;48.798;9.798;2023-04-27T03:10:56;11.80;99.90
7216;DHT22;3649;48.798;9.798;2023-04-27T03:13:23;11.80;99.90
7216;DHT22;3649;48.798;9.798;2023-04-27T03:15:49;11.70;99.90
7216;DHT22;3649;48.798;9.798;2023-04-27T03:18:16;11.80;99.90
7216;DHT22;3649;48.798;9.798;2023-04-27T03:20:43;11.70;99.90
7216;DHT22;3649;48.798;9.798;2023-04-27T03:23:10;11.70;99.90
7216;DHT22;3649;48.798;9.798;2023-04-27T03:25:37;11.80;99.90
7216;DHT22;3649;48.798;9.798;2023-04-27T03:28:04;11.70;99.90
7216;DHT22;3649;48.798;9.798;2023-04-27T03:30:31;11.80;99.90
7216;DHT22;3649;48.798;9.798;2023-04-27T03:32:58;11.70;99.90
7216;DHT22;3649;48.798;9.798;2023-04-27T03:35:25;11.70;99.90
7216;DHT22;3649;48.798;9.798;2023-04-27T03:37:51;11.60;99.90
7216;DHT22;3649;48.798;9.798;2023-04-27T03:40:18;11.60;99.90
7216;DHT22;3649;48.798;9.798;2023-04-27T03:42:45;11.60;99.90
7216;DHT22;3649;48.798;9.798;2023-04-27T03:45:12;11.60;99.90
7216;DHT22;3649;48.798;9.798;2023-04-27T03:47:39;11.80;99.90
7216;DHT22;3649;48.798;9.798;2023-04-27T03:50:06;11.60;99.90
7216;DHT22;3649;48.798;9.798;2023-04-27T03:52:33;11.50;99.90
7216;DHT22;3649;48.798;9.798;2023-04-27T03:55:00;11.50;99.90
7216;DHT22;3649;48.798;9.798;2023-04-27T03:57:26;11.50;99.90
7216;DHT22;3649;48.798;9.798;2023-04-27T03:59:53;11.50;99.90
7216;DHT22;3649;48.798;9.798;2023-04-27T04:02:20;11.50;99.90
7216;DHT22;3649;48.798;9.798;2023-04-27T04:04:48;11.50;99.90
7216;DHT22;3649;48.798;9.798;2023-04-27T04:07:15;11.50;99.90
7216;DHT22;3649;48.798;9.798;2023-04-27T04:09:43;11.50;99.90
7216;DHT22;3649;48.798;9.798;2023-04-27T04:12:10;11.60;99.90
7216;DHT22;3649;48.798;9.798;2023-04-27T04:14:37;11.70;99.90
7216;DHT22;3649;48.798;9.798;2023-04-27T04:17:03;11.50;99.90
7216;DHT22;3649;48.798;9.798;2023-04-27T04:19:30;11.70;99.90
7216;DHT22;3649;48.798;9.798;2023-04-27T04:21:57;11.70;99.90
7216;DHT22;3649;48.798;9.798;2023-04-27T04:24:24;11.50;99.90
7216;DHT22;3649;48.798;9.798;2023-04-27T04:26:51;11.50;99.90
7216;DHT22;3649;48.798;9.798;2023-04-27T04:29:17;11.50;99.90
7216;DHT22;3649;48.798;9.798;2023-04-27T04:31:44;11.50;99.90
7216;DHT22;3649;48.798;9.798;2023-04-27T04:34:12;11.60;99.90
7216;DHT22;3649;48.798;9.798;2023-04-27T04:36:40;11.60;99.90
7216;DHT22;3649;48.798;9.798;2023-04-27T04:39:06;11.50;99.90
7216;DHT22;3649;48.798;9.798;2023-04-27T04:41:33;11.60;99.90
7216;DHT22;3649;48.798;9.798;2023-04-27T04:44:00;11.60;99.90
7216;DHT22;3649;48.798;9.798;2023-04-27T04:46:27;11.60;99.90
7216;DHT22;3649;48.798;9.798;2023-04-27T04:48:54;11.60;99.90
7216;DHT22;3649;48.798;9.798;2023-04-27T04:51:21;11.70;99.90
7216;DHT22;3649;48.798;9.798;2023-04-27T04:53:48;11.70;99.90
7216;DHT22;3649;48.798;9.798;2023-04-27T04:56:15;11.60;99.90
7216;DHT22;3649;48.798;9.798;2023-04-27T04:58:42;11.70;99.90
7216;DHT22;3649;48.798;9.798;2023-04-27T05:01:09;11.60;99.90
7216;DHT22;3649;48.798;9.798;2023-04-27T05:03:36;11.60;99.90
7216;DHT22;3649;48.798;9.798;2023-04-27T05:06:03;11.80;99.90
7216;DHT22;3649;48.798;9.798;2023-04-27T05:08:30;11.60;99.90
7216;DHT22;3649;48.798;9.798;2023-04-27T05:10:57;11.60;99.90
7216;DHT22;3649;48.798;9.798;2023-04-27T05:13:24;11.60;99.90
7216;DHT22;3649;48.798;9.798;2023-04-27T05:15:51;11.60;99.90
7216;DHT22;3649;48.798;9.798;2023-04-27T05:18:18;11.70;99.90
7216;DHT22;3649;48.798;9.798;2023-04-27T05:20:45;11.70;99.90
7216;DHT22;3649;48.798;9.798;2023-04-27T05:23:12;11.70;99.90
7216;DHT22;3649;48.798;9.798;2023-04-27T05:25:39;11.80;99.90
7216;DHT22;3649;48.798;9.798;2023-04-27T05:28:09;11.70;99.90
7216;DHT22;3649;48.798;9.798;2023-04-27T05:30:36;11.80;99.90
7216;DHT22;3649;48.798;9.798;2023-04-27T05:33:03;11.80;99.90
7216;DHT22;3649;48.798;9.798;2023-04-27T05:35:31;11.80;99.90
7216;DHT22;3649;48.798;9.798;2023-04-27T05:37:58;11.90;99.90
7216;DHT22;3649;48.798;9.798;2023-04-27T05:40:25;11.80;99.90
7216;DHT22;3649;48.798;9.798;2023-04-27T05:42:52;11.90;99.90
7216;DHT22;3649;48.798;9.798;2023-04-27T05:45:19;11.90;99.90
7216;DHT22;3649;48.798;9.798;2023-04-27T05:47:47;11.90;99.90
7216;DHT22;3649;48.798;9.798;2023-04-27T05:50:14;11.90;99.90
7216;DHT22;3649;48.798;9.798;2023-04-27T05:52:41;11.90;99.90
7216;DHT22;3649;48.798;9.798;2023-04-27T05:55:07;12.00;99.90
7216;DHT22;3649;48.798;9.798;2023-04-27T05:57:34;12.00;99.90
7216;DHT22;3649;48.798;9.798;2023-04-27T06:00:02;12.00;99.90
7216;DHT22;3649;48.798;9.798;2023-04-27T06:02:34;12.10;99.90
7216;DHT22;3649;48.798;9.798;2023-04-27T06:05:01;12.10;99.90
7216;DHT22;3649;48.798;9.798;2023-04-27T06:07:27;12.10;99.90
7216;DHT22;3649;48.798;9.798;2023-04-27T06:09:54;12.10;99.90
7216;DHT22;3649;48.798;9.798;2023-04-27T06:12:21;12.20;99.90
7216;DHT22;3649;48.798;9.798;2023-04-27T06:14:48;12.10;99.90
7216;DHT22;3649;48.798;9.798;2023-04-27T06:17:15;12.10;99.90
7216;DHT22;3649;48.798;9.798;2023-04-27T06:19:41;12.20;99.90
7216;DHT22;3649;48.798;9.798;2023-04-27T06:22:09;12.30;99.90
7216;DHT22;3649;48.798;9.798;2023-04-27T06:24:37;12.40;99.90
7216;DHT22;3649;48.798;9.798;2023-04-27T06:27:04;12.50;99.90
7216;DHT22;3649;48.798;9.798;2023-04-27T06:29:31;12.70;99.90
7216;DHT22;3649;48.798;9.798;2023-04-27T06:31:59;12.70;99.90
7216;DHT22;3649;48.798;9.798;2023-04-27T06:34:26;12.70;99.90
7216;DHT22;3649;48.798;9.798;2023-04-27T06:36:53;12.70;99.90
7216;DHT22;3649;48.798;9.798;2023-04-27T06:39:20;12.60;99.90
7216;DHT22;3649;48.798;9.798;2023-04-27T06:41:46;12.60;99.90
7216;DHT22;3649;48.798;9.798;2023-04-27T06:44:13;12.70;99.90
7216;DHT22;3649;48.798;9.798;2023-04-27T06:46:40;12.70;99.90
7216;DHT22;3649;48.798;9.798;2023-04-27T06:49:07;12.70;99.90
7216;DHT22;3649;48.798;9.798;2023-04-27T06:51:34;12.80;99.90
7216;DHT22;3649;48.798;9.798;2023-04-27T06:54:01;12.80;99.90
7216;DHT22;3649;48.798;9.798;2023-04-27T06:56:29;12.80;99.90
7216;DHT22;3649;48.798;9.798;2023-04-27T06:58:55;12.80;99.90
7216;DHT22;3649;48.798;9.798;2023-04-27T07:01:22;12.90;99.90
7216;DHT22;3649;48.798;9.798;2023-04-27T07:03:49;13.00;99.90
7216;DHT22;3649;48.798;9.798;2023-04-27T07:06:16;13.00;99.90
7216;DHT22;3649;48.798;9.798;2023-04-27T07:08:43;13.10;99.90
7216;DHT22;3649;48.798;9.798;2023-04-27T07:11:11;13.20;99.90
7216;DHT22;3649;48.798;9.798;2023-04-27T07:13:37;13.20;99.90
7216;DHT22;3649;48.798;9.798;2023-04-27T07:16:05;13.30;99.90
7216;DHT22;3649;48.798;9.798;2023-04-27T07:18:32;13.40;99.90
7216;DHT22;3649;48.798;9.798;2023-04-27T07:20:58;13.40;99.90
7216;DHT22;3649;48.798;9.798;2023-04-27T07:23:26;13.50;99.90
7216;DHT22;3649;48.798;9.798;2023-04-27T07:25:52;13.60;99.90
7216;DHT22;3649;48.798;9.798;2023-04-27T07:28:19;13.60;99.90
7216;DHT22;3649;48.798;9.798;2023-04-27T07:30:47;13.70;99.90
7216;DHT22;3649;48.798;9.798;2023-04-27T07:33:14;13.70;99.90
7216;DHT22;3649;48.798;9.798;2023-04-27T07:35:41;13.80;99.90
7216;DHT22;3649;48.798;9.798;2023-04-27T07:38:08;14.10;99.90
7216;DHT22;3649;48.798;9.798;2023-04-27T07:40:34;14.20;99.90
7216;DHT22;3649;48.798;9.798;2023-04-27T07:43:02;14.30;99.90
7216;DHT22;3649;48.798;9.798;2023-04-27T07:45:29;14.30;99.90
7216;DHT22;3649;48.798;9.798;2023-04-27T07:48:00;14.30;99.90
7216;DHT22;3649;48.798;9.798;2023-04-27T07:50:28;12.80;99.90
7216;DHT22;3649;48.798;9.798;2023-04-27T07:52:56;14.40;99.90
7216;DHT22;3649;48.798;9.798;2023-04-27T07:55:24;14.50;99.90
7216;DHT22;3649;48.798;9.798;2023-04-27T07:57:52;14.50;99.90
7216;DHT22;3649;48.798;9.798;2023-04-27T08:00:19;14.50;99.90
7216;DHT22;3649;48.798;9.798;2023-04-27T08:02:46;14.50;99.90
7216;DHT22;3649;48.798;9.798;2023-04-27T08:05:14;14.50;99.90
7216;DHT22;3649;48.798;9.798;2023-04-27T08:07:41;14.50;99.90
7216;DHT22;3649;48.798;9.798;2023-04-27T08:10:10;14.60;99.90
7216;DHT22;3649;48.798;9.798;2023-04-27T08:12:37;14.70;99.90
7216;DHT22;3649;48.798;9.798;2023-04-27T08:15:05;14.70;99.90
7216;DHT22;3649;48.798;9.798;2023-04-27T08:17:33;14.80;99.90
7216;DHT22;3649;48.798;9.798;2023-04-27T08:20:00;14.90;99.90
7216;DHT22;3649;48.798;9.798;2023-04-27T08:22:27;15.10;99.90
7216;DHT22;3649;48.798;9.798;2023-04-27T08:24:54;15.20;99.90
7216;DHT22;3649;48.798;9.798;2023-04-27T08:27:21;15.30;99.90
7216;DHT22;3649;48.798;9.798;2023-04-27T08:29:48;15.40;99.90
7216;DHT22;3649;48.798;9.798;2023-04-27T08:32:15;15.50;99.90
7216;DHT22;3649;48.798;9.798;2023-04-27T08:34:42;15.70;99.90
7216;DHT22;3649;48.798;9.798;2023-04-27T08:37:10;15.80;99.70
7216;DHT22;3649;48.798;9.798;2023-04-27T08:39:37;16.00;99.80
7216;DHT22;3649;48.798;9.798;2023-04-27T08:42:11;16.00;99.40
7216;DHT22;3649;48.798;9.798;2023-04-27T08:44:42;16.10;98.70
7216;DHT22;3649;48.798;9.798;2023-04-27T08:47:10;16.20;98.30
7216;DHT22;3649;48.798;9.798;2023-04-27T08:49:37;16.40;97.70
7216;DHT22;3649;48.798;9.798;2023-04-27T08:52:10;16.40;97.70
7216;DHT22;3649;48.798;9.798;2023-04-27T08:54:38;16.50;98.00
7216;DHT22;3649;48.798;9.798;2023-04-27T08:57:12;16.50;98.20
7216;DHT22;3649;48.798;9.798;2023-04-27T08:59:39;16.40;97.40
7216;DHT22;3649;48.798;9.798;2023-04-27T09:02:20;16.40;97.30
7216;DHT22;3649;48.798;9.798;2023-04-27T09:04:47;16.40;97.30
7216;DHT22;3649;48.798;9.798;2023-04-27T09:07:16;16.60;97.50
7216;DHT22;3649;48.798;9.798;2023-04-27T09:09:44;16.60;97.60
7216;DHT22;3649;48.798;9.798;2023-04-27T09:12:19;16.60;97.30
7216;DHT22;3649;48.798;9.798;2023-04-27T09:14:58;16.60;97.20
7216;DHT22;3649;48.798;9.798;2023-04-27T09:17:26;16.70;97.50
7216;DHT22;3649;48.798;9.798;2023-04-27T09:20:07;16.70;97.60
7216;DHT22;3649;48.798;9.798;2023-04-27T09:22:50;16.70;97.60
7216;DHT22;3649;48.798;9.798;2023-04-27T09:25:30;16.70;97.10
7216;DHT22;3649;48.798;9.798;2023-04-27T09:27:59;16.80;96.70
7216;DHT22;3649;48.798;9.798;2023-04-27T09:30:27;16.80;96.80
7216;DHT22;3649;48.798;9.798;2023-04-27T09:32:59;16.90;97.30
7216;DHT22;3649;48.798;9.798;2023-04-27T09:35:32;16.90;97.40
7216;DHT22;3649;48.798;9.798;2023-04-27T09:38:00;16.90;97.30
7216;DHT22;3649;48.798;9.798;2023-04-27T09:40:28;16.90;96.70
7216;DHT22;3649;48.798;9.798;2023-04-27T09:43:00;16.90;96.70
7216;DHT22;3649;48.798;9.798;2023-04-27T09:45:28;16.90;96.90
7216;DHT22;3649;48.798;9.798;2023-04-27T09:48:00;16.80;97.30
7216;DHT22;3649;48.798;9.798;2023-04-27T09:50:27;16.80;97.20
7216;DHT22;3649;48.798;9.798;2023-04-27T09:52:54;16.80;97.20
7216;DHT22;3649;48.798;9.798;2023-04-27T09:55:38;16.70;97.10
7216;DHT22;3649;48.798;9.798;2023-04-27T09:58:41;16.80;97.00
7216;DHT22;3649;48.798;9.798;2023-04-27T10:04:07;16.80;96.20
7216;DHT22;3649;48.798;9.798;2023-04-27T10:07:00;16.80;96.30
7216;DHT22;3649;48.798;9.798;2023-04-27T10:09:38;16.80;96.00
7216;DHT22;3649;48.798;9.798;2023-04-27T10:12:26;16.70;95.90
7216;DHT22;3649;48.798;9.798;2023-04-27T10:14:59;16.70;95.60
7216;DHT22;3649;48.798;9.798;2023-04-27T10:17:31;16.80;95.60
7216;DHT22;3649;48.798;9.798;2023-04-27T10:20:03;16.90;96.20
7216;DHT22;3649;48.798;9.798;2023-04-27T10:22:48;16.90;96.40
7216;DHT22;3649;48.798;9.798;2023-04-27T10:25:24;16.90;96.00
7216;DHT22;3649;48.798;9.798;2023-04-27T10:27:59;16.80;95.50
7216;DHT22;3649;48.798;9.798;2023-04-27T10:30:32;15.30;94.80
7216;DHT22;3649;48.798;9.798;2023-04-27T10:33:09;16.80;95.00
7216;DHT22;3649;48.798;9.798;2023-04-27T10:35:40;16.80;95.50
7216;DHT22;3649;48.798;9.798;2023-04-27T10:38:15;16.80;95.40
7216;DHT22;3649;48.798;9.798;2023-04-27T10:40:44;16.90;94.60
7216;DHT22;3649;48.798;9.798;2023-04-27T10:43:14;16.90;94.80
7216;DHT22;3649;48.798;9.798;2023-04-27T10:45:43;16.90;94.00
7216;DHT22;3649;48.798;9.798;2023-04-27T10:48:13;17.00;94.80
7216;DHT22;3649;48.798;9.798;2023-04-27T10:50:41;17.00;93.90
7216;DHT22;3649;48.798;9.798;2023-04-27T10:53:10;17.10;93.70
7216;DHT22;3649;48.798;9.798;2023-04-27T10:55:37;17.10;93.90
7216;DHT22;3649;48.798;9.798;2023-04-27T10:58:04;17.10;93.90
7216;DHT22;3649;48.798;9.798;2023-04-27T11:00:33;17.20;93.80
7216;DHT22;3649;48.798;9.798;2023-04-27T11:03:15;17.20;94.30
7216;DHT22;3649;48.798;9.798;2023-04-27T11:05:45;17.20;94.40
7216;DHT22;3649;48.798;9.798;2023-04-27T11:08:16;17.10;95.10
7216;DHT22;3649;48.798;9.798;2023-04-27T11:10:49;17.10;95.50
7216;DHT22;3649;48.798;9.798;2023-04-27T11:13:18;17.00;94.80
7216;DHT22;3649;48.798;9.798;2023-04-27T11:15:48;17.10;93.50
7216;DHT22;3649;48.798;9.798;2023-04-27T11:18:17;17.10;91.80
7216;DHT22;3649;48.798;9.798;2023-04-27T11:20:48;17.20;91.40
7216;DHT22;3649;48.798;9.798;2023-04-27T11:23:41;17.20;91.00
7216;DHT22;3649;48.798;9.798;2023-04-27T11:26:16;17.30;90.50
7216;DHT22;3649;48.798;9.798;2023-04-27T11:28:55;17.40;91.00
7216;DHT22;3649;48.798;9.798;2023-04-27T11:31:22;17.40;92.50
7216;DHT22;3649;48.798;9.798;2023-04-27T11:33:50;17.50;92.20
7216;DHT22;3649;48.798;9.798;2023-04-27T11:36:18;17.40;93.40
7216;DHT22;3649;48.798;9.798;2023-04-27T11:38:47;17.40;93.50
7216;DHT22;3649;48.798;9.798;2023-04-27T11:41:14;17.30;93.20
7216;DHT22;3649;48.798;9.798;2023-04-27T11:43:43;17.40;93.70
7216;DHT22;3649;48.798;9.798;2023-04-27T11:46:18;17.40;92.70
7216;DHT22;3649;48.798;9.798;2023-04-27T11:48:45;17.50;92.60
7216;DHT22;3649;48.798;9.798;2023-04-27T11:51:12;17.60;93.10
7216;DHT22;3649;48.798;9.798;2023-04-27T11:53:39;17.60;93.40
7216;DHT22;3649;48.798;9.798;2023-04-27T11:56:08;17.60;93.60
7216;DHT22;3649;48.798;9.798;2023-04-27T11:58:37;17.60;93.10
7216;DHT22;3649;48.798;9.798;2023-04-27T12:01:04;17.60;92.90
7216;DHT22;3649;48.798;9.798;2023-04-27T12:03:32;17.60;93.70
7216;DHT22;3649;48.798;9.798;2023-04-27T12:06:00;17.60;93.80
7216;DHT22;3649;48.798;9.798;2023-04-27T12:08:47;17.60;93.90
7216;DHT22;3649;48.798;9.798;2023-04-27T12:11:14;17.70;93.70
7216;DHT22;3649;48.798;9.798;2023-04-27T12:13:40;17.70;93.00
7216;DHT22;3649;48.798;9.798;2023-04-27T12:16:08;17.80;93.80
7216;DHT22;3649;48.798;9.798;2023-04-27T12:18:34;17.80;92.70
7216;DHT22;3649;48.798;9.798;2023-04-27T12:21:01;17.90;93.20
7216;DHT22;3649;48.798;9.798;2023-04-27T12:23:31;17.80;94.20
7216;DHT22;3649;48.798;9.798;2023-04-27T12:25:58;17.70;94.00
7216;DHT22;3649;48.798;9.798;2023-04-27T12:28:25;17.70;93.80
7216;DHT22;3649;48.798;9.798;2023-04-27T12:30:52;17.60;94.40
7216;DHT22;3649;48.798;9.798;2023-04-27T12:33:19;17.60;94.40
7216;DHT22;3649;48.798;9.798;2023-04-27T12:35:46;17.60;94.70
7216;DHT22;3649;48.798;9.798;2023-04-27T12:38:13;17.60;94.40
7216;DHT22;3649;48.798;9.798;2023-04-27T12:40:40;17.70;95.00
7216;DHT22;3649;48.798;9.798;2023-04-27T12:43:07;17.70;95.40
7216;DHT22;3649;48.798;9.798;2023-04-27T12:45:34;17.70;95.60
7216;DHT22;3649;48.798;9.798;2023-04-27T12:48:01;17.60;95.50
7216;DHT22;3649;48.798;9.798;2023-04-27T12:50:32;17.70;95.30
7216;DHT22;3649;48.798;9.798;2023-04-27T12:53:00;17.70;95.60
7216;DHT22;3649;48.798;9.798;2023-04-27T12:55:27;17.70;95.20
7216;DHT22;3649;48.798;9.798;2023-04-27T12:58:01;17.70;95.10
7216;DHT22;3649;48.798;9.798;2023-04-27T13:00:28;17.70;94.80
7216;DHT22;3649;48.798;9.798;2023-04-27T13:02:55;17.70;94.70
7216;DHT22;3649;48.798;9.798;2023-04-27T13:05:23;17.80;94.60
7216;DHT22;3649;48.798;9.798;2023-04-27T13:07:50;17.80;94.60
7216;DHT22;3649;48.798;9.798;2023-04-27T13:10:17;17.80;94.20
7216;DHT22;3649;48.798;9.798;2023-04-27T13:12:44;17.90;94.10
7216;DHT22;3649;48.798;9.798;2023-04-27T13:15:11;17.90;94.40
7216;DHT22;3649;48.798;9.798;2023-04-27T13:17:38;17.90;94.80
7216;DHT22;3649;48.798;9.798;2023-04-27T13:20:08;18.00;94.30
7216;DHT22;3649;48.798;9.798;2023-04-27T13:22:36;18.00;94.70
7216;DHT22;3649;48.798;9.798;2023-04-27T13:25:03;18.00;94.10
7216;DHT22;3649;48.798;9.798;2023-04-27T13:27:31;18.00;94.00
7216;DHT22;3649;48.798;9.798;2023-04-27T13:29:58;18.00;94.50
7216;DHT22;3649;48.798;9.798;2023-04-27T13:32:25;18.00;94.50
7216;DHT22;3649;48.798;9.798;2023-04-27T13:34:52;18.00;94.50
7216;DHT22;3649;48.798;9.798;2023-04-27T13:37:20;18.00;94.90
7216;DHT22;3649;48.798;9.798;2023-04-27T13:39:47;18.00;94.80
7216;DHT22;3649;48.798;9.798;2023-04-27T13:42:14;18.00;94.70
7216;DHT22;3649;48.798;9.798;2023-04-27T13:44:41;18.00;94.50
7216;DHT22;3649;48.798;9.798;2023-04-27T13:47:08;18.00;94.50
7216;DHT22;3649;48.798;9.798;2023-04-27T13:49:35;18.00;94.50
7216;DHT22;3649;48.798;9.798;2023-04-27T13:52:02;18.00;94.30
7216;DHT22;3649;48.798;9.798;2023-04-27T13:54:29;18.10;94.90
7216;DHT22;3649;48.798;9.798;2023-04-27T13:56:56;18.00;94.90
7216;DHT22;3649;48.798;9.798;2023-04-27T13:59:23;18.10;94.50
7216;DHT22;3649;48.798;9.798;2023-04-27T14:01:50;18.10;94.60
7216;DHT22;3649;48.798;9.798;2023-04-27T14:04:17;18.10;94.30
7216;DHT22;3649;48.798;9.798;2023-04-27T14:06:44;18.10;93.70
7216;DHT22;3649;48.798;9.798;2023-04-27T14:09:11;18.20;93.90
7216;DHT22;3649;48.798;9.798;2023-04-27T14:11:38;18.20;94.30
7216;DHT22;3649;48.798;9.798;2023-04-27T14:14:22;18.20;94.40
7216;DHT22;3649;48.798;9.798;2023-04-27T14:16:49;18.20;94.40
7216;DHT22;3649;48.798;9.798;2023-04-27T14:19:19;19.30;93.70
7216;DHT22;3649;48.798;9.798;2023-04-27T14:21:47;18.20;93.70
7216;DHT22;3649;48.798;9.798;2023-04-27T14:24:14;18.30;93.90
7216;DHT22;3649;48.798;9.798;2023-04-27T14:26:41;17.40;93.60
7216;DHT22;3649;48.798;9.798;2023-04-27T14:29:10;18.30;94.40
7216;DHT22;3649;48.798;9.798;2023-04-27T14:31:38;18.30;94.50
7216;DHT22;3649;48.798;9.798;2023-04-27T14:34:06;18.30;94.40
7216;DHT22;3649;48.798;9.798;2023-04-27T14:36:33;18.20;94.70
7216;DHT22;3649;48.798;9.798;2023-04-27T14:39:01;18.20;94.60
7216;DHT22;3649;48.798;9.798;2023-04-27T14:41:29;18.20;94.30
7216;DHT22;3649;48.798;9.798;2023-04-27T14:43:56;18.20;94.00
7216;DHT22;3649;48.798;9.798;2023-04-27T14:46:22;18.30;93.90
7216;DHT22;3649;48.798;9.798;2023-04-27T14:48:49;18.20;94.10
7216;DHT22;3649;48.798;9.798;2023-04-27T14:51:17;18.20;94.30
7216;DHT22;3649;48.798;9.798;2023-04-27T14:53:44;18.20;93.90
7216;DHT22;3649;48.798;9.798;2023-04-27T14:56:11;18.30;94.40
7216;DHT22;3649;48.798;9.798;2023-04-27T14:58:38;18.20;94.60
7216;DHT22;3649;48.798;9.798;2023-04-27T15:01:06;18.20;94.60
7216;DHT22;3649;48.798;9.798;2023-04-27T15:03:33;18.20;94.60
7216;DHT22;3649;48.798;9.798;2023-04-27T15:06:01;18.20;95.20
7216;DHT22;3649;48.798;9.798;2023-04-27T15:08:28;18.10;95.50
7216;DHT22;3649;48.798;9.798;2023-04-27T15:10:59;18.10;95.40
7216;DHT22;3649;48.798;9.798;2023-04-27T15:13:26;18.00;95.40
7216;DHT22;3649;48.798;9.798;2023-04-27T15:15:54;18.10;95.40
7216;DHT22;3649;48.798;9.798;2023-04-27T15:18:22;18.10;95.90
7216;DHT22;3649;48.798;9.798;2023-04-27T15:20:58;18.00;95.90
7216;DHT22;3649;48.798;9.798;2023-04-27T15:23:26;18.00;95.60
7216;DHT22;3649;48.798;9.798;2023-04-27T15:25:54;18.00;95.70
7216;DHT22;3649;48.798;9.798;2023-04-27T15:28:25;18.00;95.70
7216;DHT22;3649;48.798;9.798;2023-04-27T15:30:52;17.90;95.70
7216;DHT22;3649;48.798;9.798;2023-04-27T15:33:19;17.90;96.10
7216;DHT22;3649;48.798;9.798;2023-04-27T15:35:46;18.00;95.70
7216;DHT22;3649;48.798;9.798;2023-04-27T15:38:14;17.90;95.70
7216;DHT22;3649;48.798;9.798;2023-04-27T15:40:41;17.90;95.80
7216;DHT22;3649;48.798;9.798;2023-04-27T15:43:08;17.90;95.90
7216;DHT22;3649;48.798;9.798;2023-04-27T15:45:35;17.90;96.10
7216;DHT22;3649;48.798;9.798;2023-04-27T15:48:02;17.90;96.10
7216;DHT22;3649;48.798;9.798;2023-04-27T15:50:29;17.90;96.00
7216;DHT22;3649;48.798;9.798;2023-04-27T15:52:56;17.90;95.70
7216;DHT22;3649;48.798;9.798;2023-04-27T15:55:23;17.90;95.50
7216;DHT22;3649;48.798;9.798;2023-04-27T15:57:50;17.90;95.40
7216;DHT22;3649;48.798;9.798;2023-04-27T16:00:17;18.00;95.70
7216;DHT22;3649;48.798;9.798;2023-04-27T16:02:47;18.00;95.70
7216;DHT22;3649;48.798;9.798;2023-04-27T16:05:15;18.00;95.50
7216;DHT22;3649;48.798;9.798;2023-04-27T16:07:43;18.10;94.50
7216;DHT22;3649;48.798;9.798;2023-04-27T16:10:11;18.10;95.40
7216;DHT22;3649;48.798;9.798;2023-04-27T16:12:39;18.00;95.40